createdAt,value
2023-02-06T00:01:45.981Z,1.50
2023-02-06T00:04:14.936Z,1.47
2023-02-06T00:06:43.660Z,1.49
2023-02-06T00:09:12.529Z,1.49
2023-02-06T00:11:41.905Z,1.49
2023-02-06T00:14:10.000Z,1.49
2023-02-06T00:16:38.368Z,1.51
2023-02-06T00:19:06.603Z,1.51
2023-02-06T00:21:34.970Z,1.52
2023-02-06T00:24:03.992Z,1.53
2023-02-06T00:26:32.521Z,1.52
2023-02-06T00:29:01.951Z,1.51
2023-02-06T00:31:30.386Z,1.50
2023-02-06T00:33:58.525Z,1.51
2023-02-06T00:36:26.652Z,1.49
2023-02-06T00:38:54.716Z,1.45
2023-02-06T00:41:22.832Z,1.47
2023-02-06T00:43:50.849Z,1.44
2023-02-06T00:46:20.274Z,1.50
2023-02-06T00:48:48.387Z,1.48
2023-02-06T00:51:16.454Z,1.44
2023-02-06T00:53:44.500Z,1.46
2023-02-06T00:56:12.566Z,1.42
2023-02-06T00:58:40.592Z,1.41
2023-02-06T01:01:09.084Z,1.41
2023-02-06T01:03:38.882Z,1.41
2023-02-06T01:06:07.304Z,1.41
2023-02-06T01:08:35.340Z,1.37
2023-02-06T01:11:03.376Z,1.39
2023-02-06T01:13:31.483Z,1.41
2023-02-06T01:15:59.517Z,1.44
2023-02-06T01:18:27.691Z,1.43
2023-02-06T01:20:57.074Z,1.43
2023-02-06T01:23:25.979Z,1.42
2023-02-06T01:25:54.043Z,1.40
2023-02-06T01:28:22.135Z,1.40
2023-02-06T01:30:50.197Z,1.41
2023-02-06T01:33:18.331Z,1.43
2023-02-06T01:35:46.770Z,1.43
2023-02-06T01:38:16.144Z,1.45
2023-02-06T01:40:44.229Z,1.46
2023-02-06T01:43:19.158Z,1.46
2023-02-06T01:45:48.437Z,1.46
2023-02-06T01:48:21.873Z,1.48
2023-02-06T01:50:55.383Z,1.45
2023-02-06T01:53:27.409Z,1.43
2023-02-06T01:55:57.497Z,1.43
2023-02-06T01:58:32.814Z,1.39
2023-02-06T02:01:04.033Z,1.33
2023-02-06T02:03:36.782Z,1.34
2023-02-06T02:06:10.306Z,1.37
2023-02-06T02:08:43.408Z,1.34
2023-02-06T02:11:17.996Z,1.37
2023-02-06T02:13:46.879Z,1.38
2023-02-06T02:16:24.445Z,1.40
2023-02-06T02:19:17.182Z,1.40
2023-02-06T02:22:24.404Z,1.37
2023-02-06T02:25:41.529Z,1.36
2023-02-06T02:28:43.178Z,1.39
2023-02-06T02:31:55.755Z,1.40
2023-02-06T02:35:14.640Z,1.36
2023-02-06T02:38:01.205Z,1.37
2023-02-06T02:40:41.333Z,1.34
2023-02-06T02:43:26.024Z,1.32
2023-02-06T02:46:03.795Z,1.34
2023-02-06T02:48:38.789Z,1.38
2023-02-06T02:51:11.293Z,1.38
2023-02-06T02:53:39.805Z,1.39
2023-02-06T02:56:18.616Z,1.38
2023-02-06T02:58:51.918Z,1.40
2023-02-06T03:01:26.780Z,1.39
2023-02-06T03:03:59.380Z,1.39
2023-02-06T03:07:03.924Z,1.35
2023-02-06T03:09:49.502Z,1.34
2023-02-06T03:12:29.129Z,1.33
2023-02-06T03:15:05.023Z,1.30
2023-02-06T03:17:41.927Z,1.27
2023-02-06T03:20:12.552Z,1.25
2023-02-06T03:22:46.277Z,1.22
2023-02-06T03:25:21.310Z,1.16
2023-02-06T03:27:51.892Z,1.15
2023-02-06T03:30:24.805Z,1.12
2023-02-06T03:33:02.380Z,1.14
2023-02-06T03:35:37.137Z,1.07
2023-02-06T03:38:10.163Z,1.06
2023-02-06T03:40:44.231Z,1.05
2023-02-06T03:43:18.557Z,1.06
2023-02-06T03:45:52.440Z,1.02
2023-02-06T03:48:28.569Z,1.06
2023-02-06T03:51:01.178Z,1.07
2023-02-06T03:53:35.728Z,1.03
2023-02-06T03:56:13.563Z,1.02
2023-02-06T03:58:41.601Z,1.00
2023-02-06T04:01:10.272Z,0.91
2023-02-06T04:03:38.337Z,0.91
2023-02-06T04:06:06.520Z,0.92
2023-02-06T04:08:35.916Z,0.93
2023-02-06T04:11:04.006Z,0.91
2023-02-06T04:13:32.087Z,0.93
2023-02-06T04:16:00.442Z,0.90
2023-02-06T04:18:28.512Z,0.89
2023-02-06T04:20:56.787Z,0.78
2023-02-06T04:23:24.839Z,0.67
2023-02-06T04:25:54.243Z,0.66
2023-02-06T04:28:22.371Z,0.71
2023-02-06T04:30:50.665Z,0.72
2023-02-06T04:33:19.180Z,0.73
2023-02-06T04:35:49.187Z,0.75
2023-02-06T04:38:17.348Z,0.74
2023-02-06T04:40:45.595Z,0.67
2023-02-06T04:43:15.001Z,0.62
2023-02-06T04:45:43.015Z,0.57
2023-02-06T04:48:11.038Z,0.60
2023-02-06T04:50:39.099Z,0.57
2023-02-06T04:53:07.199Z,0.59
2023-02-06T04:55:37.069Z,0.50
2023-02-06T04:58:05.312Z,0.50
2023-02-06T05:00:35.680Z,0.51
2023-02-06T05:03:04.424Z,0.47
2023-02-06T05:05:32.982Z,0.41
2023-02-06T05:08:01.099Z,0.36
2023-02-06T05:10:29.226Z,0.37
2023-02-06T05:12:57.263Z,0.26
2023-02-06T05:15:25.293Z,0.33
2023-02-06T05:17:55.595Z,0.22
2023-02-06T05:20:23.968Z,0.26
2023-02-06T05:22:52.018Z,0.26
2023-02-06T05:25:20.155Z,0.20
2023-02-06T05:27:48.515Z,0.24
2023-02-06T05:30:16.737Z,0.30
2023-02-06T05:32:45.048Z,0.36
2023-02-06T05:35:14.467Z,0.37
2023-02-06T05:37:42.486Z,0.41
2023-02-06T05:40:12.613Z,0.39
2023-02-06T05:42:40.685Z,0.37
2023-02-06T05:45:10.309Z,0.35
2023-02-06T05:47:38.362Z,0.40
2023-02-06T05:50:07.756Z,0.39
2023-02-06T05:52:37.213Z,0.37
2023-02-06T05:55:05.760Z,0.37
2023-02-06T05:57:33.980Z,0.38
2023-02-06T06:00:02.287Z,0.38
2023-02-06T06:02:30.312Z,0.36
2023-02-06T06:04:58.550Z,0.36
2023-02-06T06:07:26.686Z,0.19
2023-02-06T06:09:56.154Z,0.21
2023-02-06T06:12:24.271Z,0.24
2023-02-06T06:14:52.308Z,0.21
2023-02-06T06:17:20.365Z,0.11
2023-02-06T06:19:48.409Z,0.15
2023-02-06T06:22:16.492Z,0.17
2023-02-06T06:24:44.540Z,0.20
2023-02-06T06:27:13.936Z,0.10
2023-02-06T06:29:42.034Z,0.07
2023-02-06T06:32:10.139Z,0.12
2023-02-06T06:34:38.257Z,0.17
2023-02-06T06:37:06.335Z,0.16
2023-02-06T06:39:34.364Z,0.17
2023-02-06T06:42:04.307Z,0.19
2023-02-06T06:44:33.680Z,0.21
2023-02-06T06:47:01.689Z,0.22
2023-02-06T06:49:29.721Z,0.18
2023-02-06T06:51:59.404Z,0.20
2023-02-06T06:54:27.583Z,0.26
2023-02-06T06:56:55.964Z,0.24
2023-02-06T06:59:24.029Z,0.21
2023-02-06T07:01:53.464Z,0.24
2023-02-06T07:04:21.887Z,0.23
2023-02-06T07:06:50.172Z,0.21
2023-02-06T07:09:18.194Z,0.16
2023-02-06T07:11:46.201Z,0.19
2023-02-06T07:14:14.449Z,0.20
2023-02-06T07:16:42.510Z,0.05
2023-02-06T07:19:11.936Z,0.00
2023-02-06T07:21:39.992Z,-0.02
2023-02-06T07:24:08.837Z,-0.11
2023-02-06T07:26:37.067Z,-0.10
2023-02-06T07:29:05.401Z,0.03
2023-02-06T07:31:33.693Z,0.02
2023-02-06T07:34:02.206Z,0.04
2023-02-06T07:36:31.908Z,0.03
2023-02-06T07:38:59.964Z,0.03
2023-02-06T07:41:27.987Z,0.06
2023-02-06T07:43:56.393Z,0.11
2023-02-06T07:46:24.497Z,0.09
2023-02-06T07:48:52.885Z,0.04
2023-02-06T07:51:20.967Z,0.05
2023-02-06T07:53:51.122Z,-0.06
2023-02-06T07:56:23.172Z,0.03
2023-02-06T07:58:53.100Z,0.08
2023-02-06T08:01:22.109Z,0.06
2023-02-06T08:03:51.131Z,-0.06
2023-02-06T08:06:23.255Z,-0.01
2023-02-06T08:08:57.344Z,0.06
2023-02-06T08:11:27.757Z,0.12
2023-02-06T08:13:55.780Z,0.01
2023-02-06T08:16:25.449Z,0.05
2023-02-06T08:18:54.007Z,0.15
2023-02-06T08:21:24.952Z,0.21
2023-02-06T08:23:57.797Z,0.23
2023-02-06T08:26:28.064Z,0.21
2023-02-06T08:28:58.103Z,0.09
2023-02-06T08:31:29.295Z,-0.02
2023-02-06T08:33:57.732Z,0.09
2023-02-06T08:36:27.310Z,0.13
2023-02-06T08:38:57.001Z,0.14
2023-02-06T08:41:28.007Z,0.15
2023-02-06T08:43:58.953Z,0.19
2023-02-06T08:46:31.646Z,0.24
2023-02-06T08:49:03.850Z,0.26
2023-02-06T08:51:32.771Z,0.32
2023-02-06T08:54:05.460Z,0.31
2023-02-06T08:56:36.549Z,0.29
2023-02-06T08:59:06.620Z,0.38
2023-02-06T09:01:37.553Z,0.35
2023-02-06T09:04:09.392Z,0.23
2023-02-06T09:06:41.311Z,0.27
2023-02-06T09:09:13.311Z,0.24
2023-02-06T09:11:42.505Z,0.36
2023-02-06T09:14:16.642Z,0.40
2023-02-06T09:16:47.819Z,0.51
2023-02-06T09:19:15.954Z,0.56
2023-02-06T09:21:43.984Z,0.56
2023-02-06T09:24:13.393Z,0.61
2023-02-06T09:26:58.480Z,0.65
2023-02-06T09:29:29.017Z,0.60
2023-02-06T09:31:58.049Z,0.68
2023-02-06T09:34:26.905Z,0.73
2023-02-06T09:36:56.630Z,0.77
2023-02-06T09:39:26.894Z,0.86
2023-02-06T09:42:01.053Z,0.88
2023-02-06T09:44:34.237Z,0.98
2023-02-06T09:47:14.329Z,1.04
2023-02-06T09:49:51.428Z,1.09
2023-02-06T09:52:53.465Z,1.17
2023-02-06T09:55:34.252Z,1.21
2023-02-06T09:58:19.092Z,1.29
2023-02-06T10:00:54.356Z,1.38
2023-02-06T10:03:44.943Z,1.43
2023-02-06T10:06:21.834Z,1.47
2023-02-06T10:09:01.258Z,1.52
2023-02-06T10:11:45.040Z,1.57
2023-02-06T10:14:23.195Z,1.64
2023-02-06T10:16:59.981Z,1.70
2023-02-06T10:19:44.125Z,1.67
2023-02-06T10:22:20.888Z,1.68
2023-02-06T10:25:04.408Z,1.68
2023-02-06T10:27:36.390Z,1.71
2023-02-06T10:30:05.214Z,1.76
2023-02-06T10:32:46.844Z,1.81
2023-02-06T10:35:30.861Z,1.78
2023-02-06T10:38:26.492Z,1.78
2023-02-06T10:41:03.880Z,1.78
2023-02-06T10:43:47.942Z,1.82
2023-02-06T10:46:50.677Z,1.85
2023-02-06T10:49:33.833Z,1.84
2023-02-06T10:52:15.758Z,1.86
2023-02-06T10:54:53.076Z,1.86
2023-02-06T10:57:27.773Z,1.89
2023-02-06T11:00:02.703Z,1.93
2023-02-06T11:02:44.116Z,1.97
2023-02-06T11:05:20.113Z,2.01
2023-02-06T11:07:53.761Z,2.04
2023-02-06T11:10:25.367Z,2.07
2023-02-06T11:13:03.861Z,2.15
2023-02-06T11:15:39.900Z,2.17
2023-02-06T11:18:18.493Z,2.18
2023-02-06T11:20:50.130Z,2.09
2023-02-06T11:23:21.997Z,2.17
2023-02-06T11:26:04.217Z,2.17
2023-02-06T11:28:35.012Z,2.18
2023-02-06T11:31:07.875Z,2.17
2023-02-06T11:33:47.280Z,2.18
2023-02-06T11:36:27.325Z,2.20
2023-02-06T11:38:59.857Z,2.20
2023-02-06T11:41:29.519Z,2.19
2023-02-06T11:44:02.795Z,2.24
2023-02-06T11:46:35.109Z,2.27
2023-02-06T11:49:09.191Z,2.31
2023-02-06T11:51:51.529Z,2.35
2023-02-06T11:54:24.983Z,2.37
2023-02-06T11:57:04.218Z,2.39
2023-02-06T11:59:35.322Z,2.33
2023-02-06T12:02:28.329Z,2.34
2023-02-06T12:05:11.449Z,2.37
2023-02-06T12:07:44.225Z,2.34
2023-02-06T12:10:15.928Z,2.34
2023-02-06T12:12:50.723Z,2.37
2023-02-06T12:15:44.783Z,2.35
2023-02-06T12:18:19.664Z,2.30
2023-02-06T12:20:55.304Z,2.31
2023-02-06T12:23:28.773Z,2.35
2023-02-06T12:26:01.806Z,2.40
2023-02-06T12:28:38.286Z,2.37
2023-02-06T12:31:19.221Z,2.42
2023-02-06T12:33:55.154Z,2.43
2023-02-06T12:36:26.467Z,2.46
2023-02-06T12:39:01.810Z,2.49
2023-02-06T12:41:53.034Z,2.46
2023-02-06T12:44:31.156Z,2.49
2023-02-06T12:47:10.930Z,2.54
2023-02-06T12:49:54.297Z,2.54
2023-02-06T12:52:31.051Z,2.60
2023-02-06T12:55:14.471Z,2.76
2023-02-06T12:57:43.389Z,2.78
2023-02-06T13:00:51.366Z,2.86
2023-02-06T13:03:33.665Z,2.89
2023-02-06T13:06:19.170Z,2.90
2023-02-06T13:08:55.940Z,3.05
2023-02-06T13:11:32.473Z,3.26
2023-02-06T13:14:05.872Z,3.27
2023-02-06T13:16:53.629Z,3.16
2023-02-06T13:19:50.491Z,3.11
2023-02-06T13:22:44.757Z,3.01
2023-02-06T13:25:49.482Z,3.32
2023-02-06T13:28:58.926Z,3.69
2023-02-06T13:31:36.073Z,3.68
2023-02-06T13:34:18.240Z,3.65
2023-02-06T13:36:53.339Z,3.64
2023-02-06T13:39:33.590Z,3.74
2023-02-06T13:42:41.800Z,4.00
2023-02-06T13:45:21.340Z,3.79
2023-02-06T13:48:40.946Z,3.52
2023-02-06T13:51:50.205Z,3.41
2023-02-06T13:54:44.578Z,3.40
2023-02-06T13:57:54.313Z,3.38
2023-02-06T14:00:28.802Z,3.41
2023-02-06T14:03:13.675Z,3.31
2023-02-06T14:05:59.640Z,3.32
2023-02-06T14:08:44.729Z,3.34
2023-02-06T14:11:55.230Z,3.31
2023-02-06T14:14:46.551Z,3.36
2023-02-06T14:17:35.108Z,3.36
2023-02-06T14:20:18.891Z,3.41
2023-02-06T14:23:02.848Z,3.43
2023-02-06T14:25:57.235Z,3.49
2023-02-06T14:28:46.471Z,3.43
2023-02-06T14:31:40.328Z,3.35
2023-02-06T14:34:34.036Z,3.31
2023-02-06T14:37:30.821Z,3.33
2023-02-06T14:40:07.496Z,3.21
2023-02-06T14:42:41.804Z,3.19
2023-02-06T14:45:30.476Z,3.19
2023-02-06T14:48:03.824Z,3.18
2023-02-06T14:50:35.704Z,3.17
2023-02-06T14:53:11.132Z,3.21
2023-02-06T14:55:44.578Z,3.34
2023-02-06T14:58:25.730Z,3.37
2023-02-06T15:00:57.577Z,3.35
2023-02-06T15:03:28.194Z,3.34
2023-02-06T15:06:03.844Z,3.33
2023-02-06T15:08:33.375Z,3.34
2023-02-06T15:11:04.873Z,3.36
2023-02-06T15:13:37.632Z,3.44
2023-02-06T15:16:10.026Z,3.49
2023-02-06T15:18:39.387Z,3.52
2023-02-06T15:21:12.412Z,3.49
2023-02-06T15:24:10.542Z,3.48
2023-02-06T15:26:54.719Z,3.40
2023-02-06T15:29:27.530Z,3.28
2023-02-06T15:32:05.160Z,3.21
2023-02-06T15:34:33.691Z,3.14
2023-02-06T15:37:01.801Z,3.08
2023-02-06T15:39:30.100Z,3.05
2023-02-06T15:41:58.383Z,3.00
2023-02-06T15:44:34.188Z,2.95
2023-02-06T15:47:08.765Z,2.90
2023-02-06T15:49:41.324Z,2.81
2023-02-06T15:52:10.784Z,2.76
2023-02-06T15:54:42.530Z,2.71
2023-02-06T15:57:34.874Z,2.70
2023-02-06T16:00:09.424Z,2.67
2023-02-06T16:02:41.885Z,2.62
2023-02-06T16:05:23.836Z,2.60
2023-02-06T16:07:52.103Z,2.58
2023-02-06T16:10:26.474Z,2.49
2023-02-06T16:12:57.306Z,2.48
2023-02-06T16:15:34.242Z,2.47
2023-02-06T16:18:29.926Z,2.40
2023-02-06T16:21:21.370Z,2.33
2023-02-06T16:23:52.692Z,2.30
2023-02-06T16:26:24.846Z,2.17
2023-02-06T16:29:00.267Z,2.16
2023-02-06T16:31:31.577Z,2.16
2023-02-06T16:34:03.239Z,2.10
2023-02-06T16:36:33.849Z,2.09
2023-02-06T16:39:04.786Z,2.07
2023-02-06T16:41:36.046Z,1.92
2023-02-06T16:44:08.461Z,1.85
2023-02-06T16:46:36.610Z,1.85
2023-02-06T16:49:12.796Z,1.65
2023-02-06T16:51:44.443Z,1.58
2023-02-06T16:54:21.401Z,1.57
2023-02-06T16:56:50.126Z,1.41
2023-02-06T16:59:18.297Z,1.49
2023-02-06T17:01:46.496Z,1.53
2023-02-06T17:04:15.952Z,1.41
2023-02-06T17:06:44.183Z,1.51
2023-02-06T17:09:18.311Z,1.44
2023-02-06T17:11:46.395Z,1.42
2023-02-06T17:14:14.511Z,1.41
2023-02-06T17:16:42.637Z,1.39
2023-02-06T17:19:14.834Z,1.48
2023-02-06T17:21:44.259Z,1.41
2023-02-06T17:24:12.294Z,1.34
2023-02-06T17:26:40.380Z,1.46
2023-02-06T17:29:08.465Z,1.45
2023-02-06T17:31:36.569Z,1.37
2023-02-06T17:34:04.760Z,1.48
2023-02-06T17:36:39.446Z,1.48
2023-02-06T17:39:08.872Z,1.33
2023-02-06T17:41:37.019Z,1.39
2023-02-06T17:44:05.772Z,1.46
2023-02-06T17:46:33.933Z,1.50
2023-02-06T17:49:02.017Z,1.44
2023-02-06T17:51:30.402Z,1.47
2023-02-06T17:53:59.057Z,1.50
2023-02-06T17:56:28.863Z,1.50
2023-02-06T17:58:57.003Z,1.51
2023-02-06T18:01:26.166Z,1.48
2023-02-06T18:03:54.364Z,1.50
2023-02-06T18:06:22.858Z,1.51
2023-02-06T18:08:51.785Z,1.48
2023-02-06T18:11:22.790Z,1.40
2023-02-06T18:13:52.351Z,1.40
2023-02-06T18:16:24.179Z,1.37
2023-02-06T18:18:52.675Z,1.28
2023-02-06T18:21:24.422Z,1.27
2023-02-06T18:23:54.310Z,1.31
2023-02-06T18:26:24.290Z,1.28
2023-02-06T18:28:53.914Z,1.18
2023-02-06T18:31:26.755Z,1.13
2023-02-06T18:33:55.312Z,1.11
2023-02-06T18:36:24.510Z,1.09
2023-02-06T18:38:53.456Z,1.09
2023-02-06T18:41:39.147Z,1.04
2023-02-06T18:44:11.254Z,1.01
2023-02-06T18:46:40.205Z,0.97
2023-02-06T18:49:08.347Z,0.94
2023-02-06T18:51:36.469Z,0.93
2023-02-06T18:54:07.708Z,0.94
2023-02-06T18:56:35.933Z,0.77
2023-02-06T18:59:04.704Z,0.59
2023-02-06T19:01:34.211Z,0.50
2023-02-06T19:04:02.290Z,0.52
2023-02-06T19:06:35.521Z,0.46
2023-02-06T19:09:07.528Z,0.57
2023-02-06T19:11:36.171Z,0.54
2023-02-06T19:14:05.545Z,0.46
2023-02-06T19:16:38.389Z,0.43
2023-02-06T19:19:08.509Z,0.39
2023-02-06T19:21:36.673Z,0.27
2023-02-06T19:24:06.051Z,0.28
2023-02-06T19:26:34.797Z,0.32
2023-02-06T19:29:02.946Z,0.32
2023-02-06T19:31:32.246Z,0.19
2023-02-06T19:34:02.858Z,0.23
2023-02-06T19:36:32.366Z,0.21
2023-02-06T19:39:03.519Z,0.19
2023-02-06T19:41:34.423Z,0.20
2023-02-06T19:44:05.566Z,0.00
2023-02-06T19:46:35.490Z,0.04
2023-02-06T19:49:08.535Z,0.10
2023-02-06T19:51:40.166Z,0.09
2023-02-06T19:54:09.284Z,0.09
2023-02-06T19:56:40.994Z,0.14
2023-02-06T19:59:17.943Z,0.14
2023-02-06T20:01:46.787Z,0.08
2023-02-06T20:04:16.728Z,0.08
2023-02-06T20:06:45.884Z,0.16
2023-02-06T20:09:16.569Z,0.12
2023-02-06T20:11:44.805Z,0.04
2023-02-06T20:14:13.379Z,0.01
2023-02-06T20:16:43.587Z,0.01
2023-02-06T20:19:20.058Z,0.06
2023-02-06T20:21:51.844Z,0.06
2023-02-06T20:24:23.715Z,0.04
2023-02-06T20:26:55.979Z,0.04
2023-02-06T20:29:27.686Z,0.07
2023-02-06T20:31:57.028Z,0.04
2023-02-06T20:34:28.569Z,0.03
2023-02-06T20:36:57.242Z,-0.02
2023-02-06T20:39:27.576Z,-0.01
2023-02-06T20:41:55.812Z,-0.02
2023-02-06T20:44:23.998Z,-0.04
2023-02-06T20:46:52.446Z,-0.07
2023-02-06T20:49:23.609Z,-0.11
2023-02-06T20:51:53.495Z,-0.13
2023-02-06T20:54:23.190Z,-0.26
2023-02-06T20:56:52.065Z,-0.37
2023-02-06T20:59:21.934Z,-0.23
2023-02-06T21:01:50.309Z,-0.25
2023-02-06T21:04:20.897Z,-0.27
2023-02-06T21:06:49.962Z,-0.34
2023-02-06T21:09:20.159Z,-0.34
2023-02-06T21:11:50.545Z,-0.34
2023-02-06T21:14:20.430Z,-0.35
2023-02-06T21:16:49.569Z,-0.33
2023-02-06T21:19:21.260Z,-0.47
2023-02-06T21:21:50.125Z,-0.48
2023-02-06T21:24:19.728Z,-0.43
2023-02-06T21:26:48.063Z,-0.42
2023-02-06T21:29:16.804Z,-0.44
2023-02-06T21:31:46.131Z,-0.43
2023-02-06T21:34:17.417Z,-0.42
2023-02-06T21:36:46.743Z,-0.38
2023-02-06T21:39:20.130Z,-0.36
2023-02-06T21:41:51.551Z,-0.40
2023-02-06T21:44:19.745Z,-0.46
2023-02-06T21:46:47.877Z,-0.44
2023-02-06T21:49:16.023Z,-0.45
2023-02-06T21:51:44.820Z,-0.44
2023-02-06T21:54:12.906Z,-0.48
2023-02-06T21:56:42.353Z,-0.44
2023-02-06T21:59:12.526Z,-0.44
2023-02-06T22:01:41.250Z,-0.48
2023-02-06T22:04:12.129Z,-0.51
2023-02-06T22:06:40.897Z,-0.51
2023-02-06T22:09:16.556Z,-0.51
2023-02-06T22:11:47.473Z,-0.55
2023-02-06T22:14:18.426Z,-0.57
2023-02-06T22:16:47.485Z,-0.60
2023-02-06T22:19:17.240Z,-0.64
2023-02-06T22:21:45.753Z,-0.69
2023-02-06T22:24:14.462Z,-0.67
2023-02-06T22:26:43.014Z,-0.69
2023-02-06T22:29:16.687Z,-0.66
2023-02-06T22:31:46.217Z,-0.67
2023-02-06T22:34:18.550Z,-0.75
2023-02-06T22:36:46.912Z,-0.72
2023-02-06T22:39:16.144Z,-0.72
2023-02-06T22:41:47.037Z,-0.72
2023-02-06T22:44:18.550Z,-0.79
2023-02-06T22:46:50.319Z,-0.77
2023-02-06T22:49:20.402Z,-0.88
2023-02-06T22:51:48.711Z,-0.96
2023-02-06T22:54:16.929Z,-0.99
2023-02-06T22:56:46.454Z,-1.03
2023-02-06T22:59:18.712Z,-1.07
2023-02-06T23:01:49.872Z,-1.06
2023-02-06T23:04:20.722Z,-1.10
2023-02-06T23:06:50.342Z,-1.23
2023-02-06T23:09:21.212Z,-1.29
2023-02-06T23:11:50.104Z,-1.34
2023-02-06T23:14:21.053Z,-1.36
2023-02-06T23:16:49.969Z,-1.35
2023-02-06T23:19:19.603Z,-1.22
2023-02-06T23:21:51.093Z,-1.25
2023-02-06T23:24:19.972Z,-1.37
2023-02-06T23:26:51.202Z,-1.39
2023-02-06T23:29:22.696Z,-1.40
2023-02-06T23:31:51.758Z,-1.36
2023-02-06T23:34:23.563Z,-1.27
2023-02-06T23:36:52.854Z,-1.27
2023-02-06T23:39:21.335Z,-1.29
2023-02-06T23:41:49.778Z,-1.34
2023-02-06T23:44:17.900Z,-1.35
2023-02-06T23:46:47.693Z,-1.32
2023-02-06T23:49:15.900Z,-1.31
2023-02-06T23:51:44.079Z,-1.37
2023-02-06T23:54:12.244Z,-1.44
2023-02-06T23:56:40.836Z,-1.39
2023-02-06T23:59:08.945Z,-1.50
